sensor_id;sensor_type;location;lat;lon;timestamp;temperature;humidity
3528;DHT22;1778;47.966;7.854;2023-06-10T00:00:52;19.80;99.90
3528;DHT22;1778;47.966;7.854;2023-06-10T00:01:53;19.70;99.90
3528;DHT22;1778;47.966;7.854;2023-06-10T00:03:00;19.60;99.90
3528;DHT22;1778;47.966;7.854;2023-06-10T00:04:03;19.60;99.90
3528;DHT22;1778;47.966;7.854;2023-06-10T00:05:06;19.60;99.90
3528;DHT22;1778;47.966;7.854;2023-06-10T00:06:09;19.60;99.90
3528;DHT22;1778;47.966;7.854;2023-06-10T00:07:11;19.60;99.90
3528;DHT22;1778;47.966;7.854;2023-06-10T00:08:13;19.50;99.90
3528;DHT22;1778;47.966;7.854;2023-06-10T00:09:17;19.40;99.90
3528;DHT22;1778;47.966;7.854;2023-06-10T00:10:19;19.40;99.90
3528;DHT22;1778;47.966;7.854;2023-06-10T00:11:21;19.40;99.90
3528;DHT22;1778;47.966;7.854;2023-06-10T00:12:23;19.30;99.90
3528;DHT22;1778;47.966;7.854;2023-06-10T00:13:24;19.30;99.90
3528;DHT22;1778;47.966;7.854;2023-06-10T00:14:26;19.20;99.90
3528;DHT22;1778;47.966;7.854;2023-06-10T00:15:28;19.20;99.90
3528;DHT22;1778;47.966;7.854;2023-06-10T00:16:29;19.10;99.90
3528;DHT22;1778;47.966;7.854;2023-06-10T00:17:32;19.10;99.90
3528;DHT22;1778;47.966;7.854;2023-06-10T00:18:34;19.10;99.90
3528;DHT22;1778;47.966;7.854;2023-06-10T00:19:38;19.10;99.90
3528;DHT22;1778;47.966;7.854;2023-06-10T00:20:43;19.00;99.90
3528;DHT22;1778;47.966;7.854;2023-06-10T00:21:45;19.10;99.90
3528;DHT22;1778;47.966;7.854;2023-06-10T00:22:46;19.10;99.90
3528;DHT22;1778;47.966;7.854;2023-06-10T00:23:48;19.00;99.90
3528;DHT22;1778;47.966;7.854;2023-06-10T00:24:50;19.00;99.90
3528;DHT22;1778;47.966;7.854;2023-06-10T00:25:52;18.90;99.90
3528;DHT22;1778;47.966;7.854;2023-06-10T00:26:54;18.90;99.90
3528;DHT22;1778;47.966;7.854;2023-06-10T00:27:55;18.80;99.90
3528;DHT22;1778;47.966;7.854;2023-06-10T00:28:57;18.80;99.90
3528;DHT22;1778;47.966;7.854;2023-06-10T00:29:58;18.70;99.90
3528;DHT22;1778;47.966;7.854;2023-06-10T00:31:00;18.70;99.90
3528;DHT22;1778;47.966;7.854;2023-06-10T00:32:02;18.70;99.90
3528;DHT22;1778;47.966;7.854;2023-06-10T00:33:04;18.60;99.90
3528;DHT22;1778;47.966;7.854;2023-06-10T00:34:08;18.60;99.90
3528;DHT22;1778;47.966;7.854;2023-06-10T00:35:10;18.60;99.90
3528;DHT22;1778;47.966;7.854;2023-06-10T00:36:12;18.50;99.90
3528;DHT22;1778;47.966;7.854;2023-06-10T00:37:13;18.50;99.90
3528;DHT22;1778;47.966;7.854;2023-06-10T00:38:16;18.40;99.90
3528;DHT22;1778;47.966;7.854;2023-06-10T00:39:18;18.40;99.90
3528;DHT22;1778;47.966;7.854;2023-06-10T00:40:19;18.40;99.90
3528;DHT22;1778;47.966;7.854;2023-06-10T00:41:22;18.30;99.90
3528;DHT22;1778;47.966;7.854;2023-06-10T00:42:24;18.30;99.90
3528;DHT22;1778;47.966;7.854;2023-06-10T00:43:26;18.30;99.90
3528;DHT22;1778;47.966;7.854;2023-06-10T00:44:28;18.20;99.90
3528;DHT22;1778;47.966;7.854;2023-06-10T00:45:29;18.20;99.90
3528;DHT22;1778;47.966;7.854;2023-06-10T00:46:32;18.20;99.90
3528;DHT22;1778;47.966;7.854;2023-06-10T00:47:35;18.20;99.90
3528;DHT22;1778;47.966;7.854;2023-06-10T00:48:38;18.20;99.90
3528;DHT22;1778;47.966;7.854;2023-06-10T00:49:40;18.20;99.90
3528;DHT22;1778;47.966;7.854;2023-06-10T00:50:41;18.20;99.90
3528;DHT22;1778;47.966;7.854;2023-06-10T00:51:43;18.10;99.90
3528;DHT22;1778;47.966;7.854;2023-06-10T00:52:44;18.10;99.90
3528;DHT22;1778;47.966;7.854;2023-06-10T00:53:48;18.00;99.90
3528;DHT22;1778;47.966;7.854;2023-06-10T00:54:50;18.00;99.90
3528;DHT22;1778;47.966;7.854;2023-06-10T00:55:53;18.00;99.90
3528;DHT22;1778;47.966;7.854;2023-06-10T00:56:55;17.90;99.90
3528;DHT22;1778;47.966;7.854;2023-06-10T00:57:57;17.90;99.90
3528;DHT22;1778;47.966;7.854;2023-06-10T00:58:59;17.80;99.90
3528;DHT22;1778;47.966;7.854;2023-06-10T01:00:02;17.70;99.90
3528;DHT22;1778;47.966;7.854;2023-06-10T01:01:04;17.70;99.90
3528;DHT22;1778;47.966;7.854;2023-06-10T01:02:06;17.70;99.90
3528;DHT22;1778;47.966;7.854;2023-06-10T01:03:09;17.70;99.90
3528;DHT22;1778;47.966;7.854;2023-06-10T01:04:11;17.60;99.90
3528;DHT22;1778;47.966;7.854;2023-06-10T01:05:13;17.60;99.90
3528;DHT22;1778;47.966;7.854;2023-06-10T01:06:36;17.60;99.90
3528;DHT22;1778;47.966;7.854;2023-06-10T01:08:09;17.50;99.90
3528;DHT22;1778;47.966;7.854;2023-06-10T01:10:48;17.40;99.90
3528;DHT22;1778;47.966;7.854;2023-06-10T01:12:01;17.40;99.90
3528;DHT22;1778;47.966;7.854;2023-06-10T01:13:07;17.40;99.90
3528;DHT22;1778;47.966;7.854;2023-06-10T01:14:13;17.40;99.90
3528;DHT22;1778;47.966;7.854;2023-06-10T01:15:16;17.40;99.90
3528;DHT22;1778;47.966;7.854;2023-06-10T01:16:21;17.40;99.90
3528;DHT22;1778;47.966;7.854;2023-06-10T01:17:24;17.40;99.90
3528;DHT22;1778;47.966;7.854;2023-06-10T01:18:32;17.30;99.90
3528;DHT22;1778;47.966;7.854;2023-06-10T01:19:33;17.30;99.90
3528;DHT22;1778;47.966;7.854;2023-06-10T01:20:38;17.30;99.90
3528;DHT22;1778;47.966;7.854;2023-06-10T01:21:41;17.30;99.90
3528;DHT22;1778;47.966;7.854;2023-06-10T01:22:43;17.30;99.90
3528;DHT22;1778;47.966;7.854;2023-06-10T01:23:46;17.30;99.90
3528;DHT22;1778;47.966;7.854;2023-06-10T01:24:48;17.20;99.90
3528;DHT22;1778;47.966;7.854;2023-06-10T01:26:01;17.20;99.90
3528;DHT22;1778;47.966;7.854;2023-06-10T01:27:10;17.20;99.90
3528;DHT22;1778;47.966;7.854;2023-06-10T01:28:25;17.20;99.90
3528;DHT22;1778;47.966;7.854;2023-06-10T01:29:33;17.10;99.90
3528;DHT22;1778;47.966;7.854;2023-06-10T01:31:15;17.10;99.90
3528;DHT22;1778;47.966;7.854;2023-06-10T01:32:23;17.10;99.90
3528;DHT22;1778;47.966;7.854;2023-06-10T01:33:31;17.10;99.90
3528;DHT22;1778;47.966;7.854;2023-06-10T01:34:35;17.10;99.90
3528;DHT22;1778;47.966;7.854;2023-06-10T01:35:40;17.10;99.90
3528;DHT22;1778;47.966;7.854;2023-06-10T01:36:46;17.10;99.90
3528;DHT22;1778;47.966;7.854;2023-06-10T01:37:50;17.10;99.90
3528;DHT22;1778;47.966;7.854;2023-06-10T01:38:53;17.10;99.90
3528;DHT22;1778;47.966;7.854;2023-06-10T01:39:57;17.10;99.90
3528;DHT22;1778;47.966;7.854;2023-06-10T01:41:00;17.10;99.90
3528;DHT22;1778;47.966;7.854;2023-06-10T01:42:03;17.10;99.90
3528;DHT22;1778;47.966;7.854;2023-06-10T01:43:06;17.10;99.90
3528;DHT22;1778;47.966;7.854;2023-06-10T01:44:07;17.10;99.90
3528;DHT22;1778;47.966;7.854;2023-06-10T01:45:09;17.00;99.90
3528;DHT22;1778;47.966;7.854;2023-06-10T01:46:11;17.00;99.90
3528;DHT22;1778;47.966;7.854;2023-06-10T01:47:14;17.00;99.90
3528;DHT22;1778;47.966;7.854;2023-06-10T01:48:16;17.00;99.90
3528;DHT22;1778;47.966;7.854;2023-06-10T01:49:17;16.90;99.90
3528;DHT22;1778;47.966;7.854;2023-06-10T01:50:19;16.90;99.90
3528;DHT22;1778;47.966;7.854;2023-06-10T01:51:21;16.90;99.90
3528;DHT22;1778;47.966;7.854;2023-06-10T01:52:22;16.90;99.90
3528;DHT22;1778;47.966;7.854;2023-06-10T01:53:24;16.80;99.90
3528;DHT22;1778;47.966;7.854;2023-06-10T01:54:27;16.80;99.90
3528;DHT22;1778;47.966;7.854;2023-06-10T01:55:29;16.80;99.90
3528;DHT22;1778;47.966;7.854;2023-06-10T01:56:30;16.80;99.90
3528;DHT22;1778;47.966;7.854;2023-06-10T01:57:32;16.80;99.90
3528;DHT22;1778;47.966;7.854;2023-06-10T01:58:33;16.80;99.90
3528;DHT22;1778;47.966;7.854;2023-06-10T01:59:35;16.80;99.90
3528;DHT22;1778;47.966;7.854;2023-06-10T02:00:39;16.70;99.90
3528;DHT22;1778;47.966;7.854;2023-06-10T02:01:42;16.70;99.90
3528;DHT22;1778;47.966;7.854;2023-06-10T02:02:45;16.70;99.90
3528;DHT22;1778;47.966;7.854;2023-06-10T02:03:46;16.70;99.90
3528;DHT22;1778;47.966;7.854;2023-06-10T02:04:48;16.60;99.90
3528;DHT22;1778;47.966;7.854;2023-06-10T02:05:50;16.60;99.90
3528;DHT22;1778;47.966;7.854;2023-06-10T02:06:51;16.60;99.90
3528;DHT22;1778;47.966;7.854;2023-06-10T02:07:54;16.60;99.90
3528;DHT22;1778;47.966;7.854;2023-06-10T02:08:56;16.60;99.90
3528;DHT22;1778;47.966;7.854;2023-06-10T02:09:57;16.60;99.90
3528;DHT22;1778;47.966;7.854;2023-06-10T02:10:59;16.60;99.90
3528;DHT22;1778;47.966;7.854;2023-06-10T02:12:04;16.60;99.90
3528;DHT22;1778;47.966;7.854;2023-06-10T02:13:07;16.60;99.90
3528;DHT22;1778;47.966;7.854;2023-06-10T02:14:09;16.60;99.90
3528;DHT22;1778;47.966;7.854;2023-06-10T02:15:11;16.60;99.90
3528;DHT22;1778;47.966;7.854;2023-06-10T02:16:12;16.50;99.90
3528;DHT22;1778;47.966;7.854;2023-06-10T02:17:15;16.50;99.90
3528;DHT22;1778;47.966;7.854;2023-06-10T02:18:16;16.50;99.90
3528;DHT22;1778;47.966;7.854;2023-06-10T02:19:22;16.50;99.90
3528;DHT22;1778;47.966;7.854;2023-06-10T02:20:24;16.50;99.90
3528;DHT22;1778;47.966;7.854;2023-06-10T02:21:26;16.50;99.90
3528;DHT22;1778;47.966;7.854;2023-06-10T02:22:28;16.40;99.90
3528;DHT22;1778;47.966;7.854;2023-06-10T02:23:29;16.40;99.90
3528;DHT22;1778;47.966;7.854;2023-06-10T02:24:31;16.40;99.90
3528;DHT22;1778;47.966;7.854;2023-06-10T02:25:32;16.30;99.90
3528;DHT22;1778;47.966;7.854;2023-06-10T02:26:34;16.40;99.90
3528;DHT22;1778;47.966;7.854;2023-06-10T02:27:36;16.40;99.90
3528;DHT22;1778;47.966;7.854;2023-06-10T02:28:37;16.40;99.90
3528;DHT22;1778;47.966;7.854;2023-06-10T02:29:39;16.30;99.90
3528;DHT22;1778;47.966;7.854;2023-06-10T02:30:42;16.30;99.90
3528;DHT22;1778;47.966;7.854;2023-06-10T02:31:44;16.20;99.90
3528;DHT22;1778;47.966;7.854;2023-06-10T02:32:46;16.20;99.90
3528;DHT22;1778;47.966;7.854;2023-06-10T02:33:51;16.20;99.90
3528;DHT22;1778;47.966;7.854;2023-06-10T02:34:53;16.20;99.90
3528;DHT22;1778;47.966;7.854;2023-06-10T02:35:57;16.20;99.90
3528;DHT22;1778;47.966;7.854;2023-06-10T02:37:00;16.20;99.90
3528;DHT22;1778;47.966;7.854;2023-06-10T02:38:03;16.20;99.90
3528;DHT22;1778;47.966;7.854;2023-06-10T02:39:08;16.20;99.90
3528;DHT22;1778;47.966;7.854;2023-06-10T02:40:11;16.20;99.90
3528;DHT22;1778;47.966;7.854;2023-06-10T02:41:13;16.20;99.90
3528;DHT22;1778;47.966;7.854;2023-06-10T02:42:15;16.10;99.90
3528;DHT22;1778;47.966;7.854;2023-06-10T02:43:18;16.10;99.90
3528;DHT22;1778;47.966;7.854;2023-06-10T02:44:20;16.10;99.90
3528;DHT22;1778;47.966;7.854;2023-06-10T02:45:23;16.00;99.90
3528;DHT22;1778;47.966;7.854;2023-06-10T02:46:25;16.10;99.90
3528;DHT22;1778;47.966;7.854;2023-06-10T02:47:28;16.10;99.90
3528;DHT22;1778;47.966;7.854;2023-06-10T02:48:30;16.00;99.90
3528;DHT22;1778;47.966;7.854;2023-06-10T02:49:32;16.00;99.90
3528;DHT22;1778;47.966;7.854;2023-06-10T02:50:35;16.00;99.90
3528;DHT22;1778;47.966;7.854;2023-06-10T02:51:51;16.00;99.90
3528;DHT22;1778;47.966;7.854;2023-06-10T02:52:56;16.00;99.90
3528;DHT22;1778;47.966;7.854;2023-06-10T02:53:57;16.00;99.90
3528;DHT22;1778;47.966;7.854;2023-06-10T02:54:59;16.00;99.90
3528;DHT22;1778;47.966;7.854;2023-06-10T02:56:01;16.00;99.90
3528;DHT22;1778;47.966;7.854;2023-06-10T02:57:04;16.00;99.90
3528;DHT22;1778;47.966;7.854;2023-06-10T02:58:07;15.90;99.90
3528;DHT22;1778;47.966;7.854;2023-06-10T02:59:09;15.90;99.90
3528;DHT22;1778;47.966;7.854;2023-06-10T03:00:11;15.90;99.90
3528;DHT22;1778;47.966;7.854;2023-06-10T03:01:15;15.90;99.90
3528;DHT22;1778;47.966;7.854;2023-06-10T03:02:26;15.90;99.90
3528;DHT22;1778;47.966;7.854;2023-06-10T03:03:31;15.90;99.90
3528;DHT22;1778;47.966;7.854;2023-06-10T03:04:41;15.90;99.90
3528;DHT22;1778;47.966;7.854;2023-06-10T03:05:48;15.90;99.90
3528;DHT22;1778;47.966;7.854;2023-06-10T03:06:52;15.90;99.90
3528;DHT22;1778;47.966;7.854;2023-06-10T03:08:00;15.90;99.90
3528;DHT22;1778;47.966;7.854;2023-06-10T03:09:03;15.80;99.90
3528;DHT22;1778;47.966;7.854;2023-06-10T03:10:09;15.80;99.90
3528;DHT22;1778;47.966;7.854;2023-06-10T03:11:13;15.80;99.90
3528;DHT22;1778;47.966;7.854;2023-06-10T03:12:16;15.80;99.90
3528;DHT22;1778;47.966;7.854;2023-06-10T03:13:22;15.70;99.90
3528;DHT22;1778;47.966;7.854;2023-06-10T03:14:25;15.80;99.90
3528;DHT22;1778;47.966;7.854;2023-06-10T03:15:27;15.70;99.90
3528;DHT22;1778;47.966;7.854;2023-06-10T03:16:30;15.70;99.90
3528;DHT22;1778;47.966;7.854;2023-06-10T03:17:34;15.70;99.90
3528;DHT22;1778;47.966;7.854;2023-06-10T03:18:36;15.70;99.90
3528;DHT22;1778;47.966;7.854;2023-06-10T03:19:39;15.70;99.90
3528;DHT22;1778;47.966;7.854;2023-06-10T03:20:41;15.80;99.90
3528;DHT22;1778;47.966;7.854;2023-06-10T03:21:44;15.70;99.90
3528;DHT22;1778;47.966;7.854;2023-06-10T03:22:48;15.70;99.90
3528;DHT22;1778;47.966;7.854;2023-06-10T03:23:51;15.70;99.90
3528;DHT22;1778;47.966;7.854;2023-06-10T03:24:53;15.60;99.90
3528;DHT22;1778;47.966;7.854;2023-06-10T03:25:57;15.60;99.90
3528;DHT22;1778;47.966;7.854;2023-06-10T03:26:59;15.60;99.90
3528;DHT22;1778;47.966;7.854;2023-06-10T03:28:02;15.60;99.90
3528;DHT22;1778;47.966;7.854;2023-06-10T03:29:04;15.60;99.90
3528;DHT22;1778;47.966;7.854;2023-06-10T03:30:07;15.60;99.90
3528;DHT22;1778;47.966;7.854;2023-06-10T03:31:09;15.50;99.90
3528;DHT22;1778;47.966;7.854;2023-06-10T03:32:11;15.50;99.90
3528;DHT22;1778;47.966;7.854;2023-06-10T03:33:15;15.50;99.90
3528;DHT22;1778;47.966;7.854;2023-06-10T03:34:18;15.50;99.90
3528;DHT22;1778;47.966;7.854;2023-06-10T03:35:20;15.40;99.90
3528;DHT22;1778;47.966;7.854;2023-06-10T03:36:22;15.40;99.90
3528;DHT22;1778;47.966;7.854;2023-06-10T03:37:25;15.40;99.90
3528;DHT22;1778;47.966;7.854;2023-06-10T03:38:27;15.50;99.90
3528;DHT22;1778;47.966;7.854;2023-06-10T03:39:29;15.40;99.90
3528;DHT22;1778;47.966;7.854;2023-06-10T03:40:33;15.40;99.90
3528;DHT22;1778;47.966;7.854;2023-06-10T03:41:35;15.40;99.90
3528;DHT22;1778;47.966;7.854;2023-06-10T03:42:37;15.40;99.90
3528;DHT22;1778;47.966;7.854;2023-06-10T03:43:40;15.40;99.90
3528;DHT22;1778;47.966;7.854;2023-06-10T03:44:42;15.40;99.90
3528;DHT22;1778;47.966;7.854;2023-06-10T03:45:44;15.40;99.90
3528;DHT22;1778;47.966;7.854;2023-06-10T03:46:47;15.40;99.90
3528;DHT22;1778;47.966;7.854;2023-06-10T03:47:49;15.40;99.90
3528;DHT22;1778;47.966;7.854;2023-06-10T03:48:56;15.40;99.90
3528;DHT22;1778;47.966;7.854;2023-06-10T03:49:58;15.40;99.90
3528;DHT22;1778;47.966;7.854;2023-06-10T03:50:59;15.40;99.90
3528;DHT22;1778;47.966;7.854;2023-06-10T03:52:02;15.40;99.90
3528;DHT22;1778;47.966;7.854;2023-06-10T03:53:04;15.40;99.90
3528;DHT22;1778;47.966;7.854;2023-06-10T03:54:06;15.40;99.90
3528;DHT22;1778;47.966;7.854;2023-06-10T03:55:08;15.40;99.90
3528;DHT22;1778;47.966;7.854;2023-06-10T03:56:10;15.40;99.90
3528;DHT22;1778;47.966;7.854;2023-06-10T03:57:12;15.40;99.90
3528;DHT22;1778;47.966;7.854;2023-06-10T03:58:14;15.40;99.90
3528;DHT22;1778;47.966;7.854;2023-06-10T03:59:17;15.40;99.90
3528;DHT22;1778;47.966;7.854;2023-06-10T04:00:19;15.40;99.90
3528;DHT22;1778;47.966;7.854;2023-06-10T04:01:22;15.40;99.90
3528;DHT22;1778;47.966;7.854;2023-06-10T04:02:25;15.40;99.90
3528;DHT22;1778;47.966;7.854;2023-06-10T04:03:27;15.40;99.90
3528;DHT22;1778;47.966;7.854;2023-06-10T04:04:30;15.40;99.90
3528;DHT22;1778;47.966;7.854;2023-06-10T04:05:32;15.40;99.90
3528;DHT22;1778;47.966;7.854;2023-06-10T04:06:34;15.40;99.90
3528;DHT22;1778;47.966;7.854;2023-06-10T04:07:35;15.40;99.90
3528;DHT22;1778;47.966;7.854;2023-06-10T04:08:37;15.40;99.90
3528;DHT22;1778;47.966;7.854;2023-06-10T04:09:39;15.40;99.90
3528;DHT22;1778;47.966;7.854;2023-06-10T04:10:41;15.40;99.90
3528;DHT22;1778;47.966;7.854;2023-06-10T04:11:42;15.40;99.90
3528;DHT22;1778;47.966;7.854;2023-06-10T04:12:44;15.40;99.90
3528;DHT22;1778;47.966;7.854;2023-06-10T04:13:46;15.40;99.90
3528;DHT22;1778;47.966;7.854;2023-06-10T04:14:47;15.50;99.90
3528;DHT22;1778;47.966;7.854;2023-06-10T04:15:50;15.40;99.90
3528;DHT22;1778;47.966;7.854;2023-06-10T04:16:54;15.40;99.90
3528;DHT22;1778;47.966;7.854;2023-06-10T04:17:57;15.40;99.90
3528;DHT22;1778;47.966;7.854;2023-06-10T04:19:00;15.50;99.90
3528;DHT22;1778;47.966;7.854;2023-06-10T04:20:03;15.50;99.90
3528;DHT22;1778;47.966;7.854;2023-06-10T04:21:08;15.50;99.90
3528;DHT22;1778;47.966;7.854;2023-06-10T04:22:10;15.40;99.90
3528;DHT22;1778;47.966;7.854;2023-06-10T04:23:12;15.40;99.90
3528;DHT22;1778;47.966;7.854;2023-06-10T04:24:15;15.40;99.90
3528;DHT22;1778;47.966;7.854;2023-06-10T04:25:18;15.40;99.90
3528;DHT22;1778;47.966;7.854;2023-06-10T04:26:22;15.40;99.90
3528;DHT22;1778;47.966;7.854;2023-06-10T04:27:25;15.50;99.90
3528;DHT22;1778;47.966;7.854;2023-06-10T04:28:27;15.50;99.90
3528;DHT22;1778;47.966;7.854;2023-06-10T04:29:29;15.50;99.90
3528;DHT22;1778;47.966;7.854;2023-06-10T04:30:33;15.50;99.90
3528;DHT22;1778;47.966;7.854;2023-06-10T04:31:35;15.50;99.90
3528;DHT22;1778;47.966;7.854;2023-06-10T04:32:36;15.50;99.90
3528;DHT22;1778;47.966;7.854;2023-06-10T04:33:41;15.50;99.90
3528;DHT22;1778;47.966;7.854;2023-06-10T04:34:44;15.50;99.90
3528;DHT22;1778;47.966;7.854;2023-06-10T04:35:45;15.50;99.90
3528;DHT22;1778;47.966;7.854;2023-06-10T04:36:49;15.50;99.90
3528;DHT22;1778;47.966;7.854;2023-06-10T04:37:53;15.50;99.90
3528;DHT22;1778;47.966;7.854;2023-06-10T04:38:54;15.50;99.90
3528;DHT22;1778;47.966;7.854;2023-06-10T04:39:56;15.50;99.90
3528;DHT22;1778;47.966;7.854;2023-06-10T04:40:58;15.60;99.90
3528;DHT22;1778;47.966;7.854;2023-06-10T04:42:03;15.60;99.90
3528;DHT22;1778;47.966;7.854;2023-06-10T04:43:04;15.60;99.90
3528;DHT22;1778;47.966;7.854;2023-06-10T04:44:07;15.60;99.90
3528;DHT22;1778;47.966;7.854;2023-06-10T04:45:09;15.60;99.90
3528;DHT22;1778;47.966;7.854;2023-06-10T04:46:11;15.60;99.90
3528;DHT22;1778;47.966;7.854;2023-06-10T04:47:17;15.60;99.90
3528;DHT22;1778;47.966;7.854;2023-06-10T04:48:19;15.60;99.90
3528;DHT22;1778;47.966;7.854;2023-06-10T04:49:21;15.60;99.90
3528;DHT22;1778;47.966;7.854;2023-06-10T04:50:23;15.70;99.90
3528;DHT22;1778;47.966;7.854;2023-06-10T04:51:24;15.70;99.90
3528;DHT22;1778;47.966;7.854;2023-06-10T04:52:26;15.70;99.90
3528;DHT22;1778;47.966;7.854;2023-06-10T04:53:28;15.80;99.90
3528;DHT22;1778;47.966;7.854;2023-06-10T04:54:30;15.80;99.90
3528;DHT22;1778;47.966;7.854;2023-06-10T04:55:31;15.80;99.90
3528;DHT22;1778;47.966;7.854;2023-06-10T04:56:34;15.80;99.90
3528;DHT22;1778;47.966;7.854;2023-06-10T04:57:36;15.80;99.90
3528;DHT22;1778;47.966;7.854;2023-06-10T04:58:38;15.80;99.90
3528;DHT22;1778;47.966;7.854;2023-06-10T04:59:39;15.80;99.90
3528;DHT22;1778;47.966;7.854;2023-06-10T05:00:42;15.90;99.90
3528;DHT22;1778;47.966;7.854;2023-06-10T05:01:43;15.90;99.90
3528;DHT22;1778;47.966;7.854;2023-06-10T05:02:44;15.90;99.90
3528;DHT22;1778;47.966;7.854;2023-06-10T05:03:51;15.90;99.90
3528;DHT22;1778;47.966;7.854;2023-06-10T05:04:52;16.00;99.90
3528;DHT22;1778;47.966;7.854;2023-06-10T05:05:56;16.00;99.90
3528;DHT22;1778;47.966;7.854;2023-06-10T05:06:58;16.00;99.90
3528;DHT22;1778;47.966;7.854;2023-06-10T05:08:00;16.00;99.90
3528;DHT22;1778;47.966;7.854;2023-06-10T05:09:01;16.00;99.90
3528;DHT22;1778;47.966;7.854;2023-06-10T05:10:03;16.00;99.90
3528;DHT22;1778;47.966;7.854;2023-06-10T05:11:05;16.10;99.90
3528;DHT22;1778;47.966;7.854;2023-06-10T05:12:08;16.20;99.90
3528;DHT22;1778;47.966;7.854;2023-06-10T05:13:10;16.20;99.90
3528;DHT22;1778;47.966;7.854;2023-06-10T05:14:12;16.30;99.90
3528;DHT22;1778;47.966;7.854;2023-06-10T05:15:14;16.30;99.90
3528;DHT22;1778;47.966;7.854;2023-06-10T05:16:16;16.30;99.90
3528;DHT22;1778;47.966;7.854;2023-06-10T05:17:18;16.40;99.90
3528;DHT22;1778;47.966;7.854;2023-06-10T05:18:19;16.40;99.90
3528;DHT22;1778;47.966;7.854;2023-06-10T05:19:22;16.40;99.90
3528;DHT22;1778;47.966;7.854;2023-06-10T05:20:24;16.50;99.90
3528;DHT22;1778;47.966;7.854;2023-06-10T05:21:26;16.60;99.90
3528;DHT22;1778;47.966;7.854;2023-06-10T05:22:28;16.60;99.90
3528;DHT22;1778;47.966;7.854;2023-06-10T05:23:30;16.70;99.90
3528;DHT22;1778;47.966;7.854;2023-06-10T05:24:32;16.70;99.90
3528;DHT22;1778;47.966;7.854;2023-06-10T05:25:34;16.70;99.90
3528;DHT22;1778;47.966;7.854;2023-06-10T05:26:36;16.70;99.90
3528;DHT22;1778;47.966;7.854;2023-06-10T05:27:39;16.80;99.90
3528;DHT22;1778;47.966;7.854;2023-06-10T05:28:43;16.80;99.90
3528;DHT22;1778;47.966;7.854;2023-06-10T05:29:44;16.90;99.90
3528;DHT22;1778;47.966;7.854;2023-06-10T05:30:49;17.00;99.90
3528;DHT22;1778;47.966;7.854;2023-06-10T05:31:51;17.00;99.90
3528;DHT22;1778;47.966;7.854;2023-06-10T05:32:53;17.00;99.90
3528;DHT22;1778;47.966;7.854;2023-06-10T05:33:55;17.10;99.90
3528;DHT22;1778;47.966;7.854;2023-06-10T05:34:56;17.10;99.90
3528;DHT22;1778;47.966;7.854;2023-06-10T05:35:58;17.10;99.90
3528;DHT22;1778;47.966;7.854;2023-06-10T05:37:00;17.20;99.90
3528;DHT22;1778;47.966;7.854;2023-06-10T05:38:02;17.20;99.90
3528;DHT22;1778;47.966;7.854;2023-06-10T05:39:04;17.20;99.90
3528;DHT22;1778;47.966;7.854;2023-06-10T05:40:07;17.30;99.90
3528;DHT22;1778;47.966;7.854;2023-06-10T05:41:09;17.30;99.90
3528;DHT22;1778;47.966;7.854;2023-06-10T05:42:11;17.40;99.90
3528;DHT22;1778;47.966;7.854;2023-06-10T05:43:13;17.40;99.90
3528;DHT22;1778;47.966;7.854;2023-06-10T05:44:15;17.50;99.90
3528;DHT22;1778;47.966;7.854;2023-06-10T05:45:16;17.50;99.90
3528;DHT22;1778;47.966;7.854;2023-06-10T05:46:18;17.50;99.90
3528;DHT22;1778;47.966;7.854;2023-06-10T05:47:20;17.60;99.90
3528;DHT22;1778;47.966;7.854;2023-06-10T05:48:22;17.60;99.90
3528;DHT22;1778;47.966;7.854;2023-06-10T05:49:24;17.70;99.90
3528;DHT22;1778;47.966;7.854;2023-06-10T05:50:26;17.70;99.90
3528;DHT22;1778;47.966;7.854;2023-06-10T05:51:27;17.70;99.90
3528;DHT22;1778;47.966;7.854;2023-06-10T05:52:29;17.70;99.90
3528;DHT22;1778;47.966;7.854;2023-06-10T05:53:32;17.80;99.90
3528;DHT22;1778;47.966;7.854;2023-06-10T05:54:33;17.90;99.90
3528;DHT22;1778;47.966;7.854;2023-06-10T05:55:35;18.00;99.90
3528;DHT22;1778;47.966;7.854;2023-06-10T05:56:37;18.00;99.90
3528;DHT22;1778;47.966;7.854;2023-06-10T05:57:40;18.10;99.90
3528;DHT22;1778;47.966;7.854;2023-06-10T05:58:42;18.00;99.90
3528;DHT22;1778;47.966;7.854;2023-06-10T05:59:44;18.10;99.90
3528;DHT22;1778;47.966;7.854;2023-06-10T06:00:46;18.10;99.90
3528;DHT22;1778;47.966;7.854;2023-06-10T06:01:47;18.20;99.90
3528;DHT22;1778;47.966;7.854;2023-06-10T06:02:49;18.30;99.90
3528;DHT22;1778;47.966;7.854;2023-06-10T06:03:52;18.30;99.90
3528;DHT22;1778;47.966;7.854;2023-06-10T06:04:54;18.30;99.90
3528;DHT22;1778;47.966;7.854;2023-06-10T06:05:56;18.40;99.90
3528;DHT22;1778;47.966;7.854;2023-06-10T06:06:57;18.40;99.90
3528;DHT22;1778;47.966;7.854;2023-06-10T06:07:59;18.50;99.90
3528;DHT22;1778;47.966;7.854;2023-06-10T06:09:01;18.50;99.90
3528;DHT22;1778;47.966;7.854;2023-06-10T06:10:02;18.60;99.90
3528;DHT22;1778;47.966;7.854;2023-06-10T06:11:04;18.60;99.90
3528;DHT22;1778;47.966;7.854;2023-06-10T06:12:06;18.70;99.90
3528;DHT22;1778;47.966;7.854;2023-06-10T06:13:09;18.70;99.90
3528;DHT22;1778;47.966;7.854;2023-06-10T06:14:11;18.70;99.90
3528;DHT22;1778;47.966;7.854;2023-06-10T06:15:12;18.80;99.90
3528;DHT22;1778;47.966;7.854;2023-06-10T06:16:14;18.90;99.90
3528;DHT22;1778;47.966;7.854;2023-06-10T06:17:16;19.00;99.90
3528;DHT22;1778;47.966;7.854;2023-06-10T06:18:18;19.00;99.90
3528;DHT22;1778;47.966;7.854;2023-06-10T06:19:20;19.10;99.90
3528;DHT22;1778;47.966;7.854;2023-06-10T06:20:22;19.10;99.90
3528;DHT22;1778;47.966;7.854;2023-06-10T06:21:24;19.10;99.90
3528;DHT22;1778;47.966;7.854;2023-06-10T06:22:25;19.20;99.90
3528;DHT22;1778;47.966;7.854;2023-06-10T06:23:27;19.20;99.90
3528;DHT22;1778;47.966;7.854;2023-06-10T06:24:28;19.20;99.90
3528;DHT22;1778;47.966;7.854;2023-06-10T06:25:30;19.20;99.90
3528;DHT22;1778;47.966;7.854;2023-06-10T06:26:31;19.30;99.90
3528;DHT22;1778;47.966;7.854;2023-06-10T06:27:33;19.30;99.90
3528;DHT22;1778;47.966;7.854;2023-06-10T06:28:35;19.20;99.90
3528;DHT22;1778;47.966;7.854;2023-06-10T06:29:36;19.30;99.90
3528;DHT22;1778;47.966;7.854;2023-06-10T06:30:39;19.30;99.90
3528;DHT22;1778;47.966;7.854;2023-06-10T06:31:41;19.30;99.90
3528;DHT22;1778;47.966;7.854;2023-06-10T06:32:43;19.30;99.90
3528;DHT22;1778;47.966;7.854;2023-06-10T06:33:45;19.30;99.90
3528;DHT22;1778;47.966;7.854;2023-06-10T06:34:46;19.40;99.90
3528;DHT22;1778;47.966;7.854;2023-06-10T06:35:50;19.40;99.90
3528;DHT22;1778;47.966;7.854;2023-06-10T06:36:52;19.50;99.90
3528;DHT22;1778;47.966;7.854;2023-06-10T06:37:53;19.60;99.90
3528;DHT22;1778;47.966;7.854;2023-06-10T06:38:59;19.60;99.90
3528;DHT22;1778;47.966;7.854;2023-06-10T06:40:02;19.70;99.90
3528;DHT22;1778;47.966;7.854;2023-06-10T06:41:05;19.70;99.90
3528;DHT22;1778;47.966;7.854;2023-06-10T06:42:08;19.80;99.90
3528;DHT22;1778;47.966;7.854;2023-06-10T06:43:36;19.70;99.90
3528;DHT22;1778;47.966;7.854;2023-06-10T06:44:57;19.80;99.90
3528;DHT22;1778;47.966;7.854;2023-06-10T06:45:59;19.80;99.90
3528;DHT22;1778;47.966;7.854;2023-06-10T06:47:00;19.80;99.90
3528;DHT22;1778;47.966;7.854;2023-06-10T06:48:02;19.80;99.90
3528;DHT22;1778;47.966;7.854;2023-06-10T06:49:04;19.80;99.90
3528;DHT22;1778;47.966;7.854;2023-06-10T06:50:06;19.90;99.90
3528;DHT22;1778;47.966;7.854;2023-06-10T06:51:07;19.90;99.90
3528;DHT22;1778;47.966;7.854;2023-06-10T06:52:09;20.00;99.90
3528;DHT22;1778;47.966;7.854;2023-06-10T06:53:11;20.00;99.90